Time;durP1;ratioP1;P1;durP2;ratioP2;P2;SDS_P1;SDS_P2;PMS_P1;PMS_P2;Temp;Humidity;BMP_temperature;BMP_pressure;BME280_temperature;BME280_humidity;BME280_pressure;Samples;Min_cycle;Max_cycle;Signal;HPM_P1;HPM_P2
2021/09/27 00:00:33;;;;;;;;;;;16.60;56.10;;;;;;4360851;32;19963;-37
2021/09/27 00:02:59;;;;;;;;;;;16.70;56.00;;;;;;4360520;32;20407;-38
2021/09/27 00:05:25;;;;;;;;;;;16.70;55.90;;;;;;4360422;32;19972;-38
2021/09/27 00:07:52;;;;;;;;;;;16.80;55.90;;;;;;4360606;32;20052;-38
2021/09/27 00:10:23;;;;;;;;;;;16.80;56.00;;;;;;4346120;32;19973;-38
2021/09/27 00:12:49;;;;;;;;;;;16.80;56.10;;;;;;4360263;32;19990;-38
2021/09/27 00:15:19;;;;;;;;;;;16.90;56.10;;;;;;4360589;32;19982;-37
2021/09/27 00:17:45;;;;;;;;;;;16.90;56.00;;;;;;4360633;32;20522;-38
2021/09/27 00:20:12;;;;;;;;;;;16.90;55.70;;;;;;4360342;32;20031;-38
2021/09/27 00:22:38;;;;;;;;;;;16.90;55.20;;;;;;4359930;32;20403;-38
2021/09/27 00:25:05;;;;;;;;;;;16.90;55.00;;;;;;4346509;32;20417;-39
2021/09/27 00:27:31;;;;;;;;;;;16.80;54.50;;;;;;4360505;32;19998;-39
2021/09/27 00:29:59;;;;;;;;;;;16.80;54.20;;;;;;4360078;32;19959;-38
2021/09/27 00:32:26;;;;;;;;;;;16.80;53.80;;;;;;4360413;32;19970;-37
2021/09/27 00:34:52;;;;;;;;;;;16.70;53.60;;;;;;4346373;32;19998;-38
2021/09/27 00:37:18;;;;;;;;;;;16.70;53.40;;;;;;4345828;32;20026;-40
2021/09/27 00:39:44;;;;;;;;;;;16.60;53.30;;;;;;4359836;32;20355;-37
2021/09/27 00:42:13;;;;;;;;;;;16.60;53.40;;;;;;4359760;32;20052;-38
2021/09/27 00:44:39;;;;;;;;;;;16.50;53.30;;;;;;4359528;32;19990;-38
2021/09/27 00:47:05;;;;;;;;;;;16.50;53.40;;;;;;4359696;32;19978;-37
2021/09/27 00:49:32;;;;;;;;;;;16.40;53.30;;;;;;4346573;32;20434;-37
2021/09/27 00:51:58;;;;;;;;;;;16.40;53.30;;;;;;4319207;33;19970;-37
2021/09/27 00:54:27;;;;;;;;;;;16.30;53.00;;;;;;4345271;33;19969;-37
2021/09/27 00:57:03;;;;;;;;;;;16.30;53.00;;;;;;4319811;33;20034;-38
2021/09/27 00:59:29;;;;;;;;;;;16.20;52.80;;;;;;4331661;33;20065;-38
2021/09/27 01:01:55;;;;;;;;;;;16.20;53.00;;;;;;4319157;33;19967;-37
2021/09/27 01:04:21;;;;;;;;;;;16.20;53.20;;;;;;4344876;33;19974;-38
2021/09/27 01:06:47;;;;;;;;;;;16.10;53.20;;;;;;4344697;33;19990;-37
2021/09/27 01:09:27;;;;;;;;;;;16.10;53.00;;;;;;4344976;33;20099;-38
2021/09/27 01:12:04;;;;;;;;;;;16.10;53.20;;;;;;4344559;33;20442;-38
2021/09/27 01:14:53;;;;;;;;;;;16.00;53.40;;;;;;4344494;33;20493;-38
2021/09/27 01:17:41;;;;;;;;;;;15.90;53.40;;;;;;4322652;33;20010;-38
2021/09/27 01:20:14;;;;;;;;;;;15.80;53.80;;;;;;4344324;33;19955;-38
2021/09/27 01:22:48;;;;;;;;;;;15.70;54.00;;;;;;4344422;33;19994;-39
2021/09/27 01:25:37;;;;;;;;;;;15.60;54.00;;;;;;4330460;33;20464;-39
2021/09/27 01:28:33;;;;;;;;;;;15.60;54.40;;;;;;4344373;33;20063;-38
2021/09/27 01:31:15;;;;;;;;;;;15.50;54.60;;;;;;4344018;33;20414;-38
2021/09/27 01:34:06;;;;;;;;;;;15.50;54.90;;;;;;4343954;33;20372;-38
2021/09/27 01:37:13;;;;;;;;;;;15.50;55.00;;;;;;4330704;33;20026;-37
2021/09/27 01:39:48;;;;;;;;;;;15.40;55.10;;;;;;4271169;33;20147;-38
2021/09/27 01:42:19;;;;;;;;;;;15.30;56.10;;;;;;4283327;33;19971;-40
2021/09/27 01:44:53;;;;;;;;;;;15.30;55.70;;;;;;4271244;33;19979;-38
2021/09/27 01:47:24;;;;;;;;;;;15.30;55.90;;;;;;4259961;33;20066;-38
2021/09/27 01:50:33;;;;;;;;;;;15.30;56.00;;;;;;4268938;33;19992;-38
2021/09/27 01:53:09;;;;;;;;;;;15.30;56.10;;;;;;4240671;33;20009;-38
2021/09/27 01:55:56;;;;;;;;;;;15.20;55.90;;;;;;4217861;33;19981;-38
2021/09/27 01:58:25;;;;;;;;;;;15.20;55.90;;;;;;4228359;33;19984;-38
2021/09/27 02:01:00;;;;;;;;;;;15.10;55.60;;;;;;4228612;33;20001;-38
2021/09/27 02:04:00;;;;;;;;;;;15.10;55.60;;;;;;4228910;33;20001;-37
2021/09/27 02:06:32;;;;;;;;;;;15.00;55.90;;;;;;4231284;33;19973;-38
2021/09/27 02:09:02;;;;;;;;;;;14.90;55.90;;;;;;4229055;33;19985;-38
2021/09/27 02:11:30;;;;;;;;;;;14.90;55.90;;;;;;4240625;33;20101;-38
2021/09/27 02:14:17;;;;;;;;;;;14.80;56.00;;;;;;4229186;33;20064;-38
2021/09/27 02:16:55;;;;;;;;;;;14.70;55.90;;;;;;4282919;33;19980;-37
2021/09/27 02:19:30;;;;;;;;;;;14.60;55.80;;;;;;4282526;33;20415;-38
2021/09/27 02:22:07;;;;;;;;;;;14.60;56.00;;;;;;4282797;33;20444;-38
2021/09/27 02:24:40;;;;;;;;;;;14.50;55.80;;;;;;4321688;33;20049;-39
2021/09/27 02:27:06;;;;;;;;;;;14.40;55.90;;;;;;4317829;33;19975;-38
2021/09/27 02:29:32;;;;;;;;;;;14.40;56.00;;;;;;4343670;33;19978;-38
2021/09/27 02:32:11;;;;;;;;;;;14.40;56.00;;;;;;4343307;33;19990;-37
2021/09/27 02:34:46;;;;;;;;;;;14.40;55.80;;;;;;4343389;33;20002;-37
2021/09/27 02:37:42;;;;;;;;;;;14.30;55.80;;;;;;4343852;33;20001;-37
2021/09/27 02:40:13;;;;;;;;;;;14.30;56.00;;;;;;4318703;33;19983;-37
2021/09/27 02:42:54;;;;;;;;;;;14.20;56.40;;;;;;4343817;33;20101;-37
2021/09/27 02:45:21;;;;;;;;;;;14.20;56.00;;;;;;4343474;33;19966;-37
2021/09/27 02:47:52;;;;;;;;;;;14.20;56.00;;;;;;4329788;33;20410;-37
2021/09/27 02:50:22;;;;;;;;;;;14.20;56.20;;;;;;4343739;32;20418;-38
2021/09/27 02:52:48;;;;;;;;;;;14.20;56.00;;;;;;4343434;32;20069;-39
2021/09/27 02:55:17;;;;;;;;;;;14.10;56.30;;;;;;4343463;32;20071;-39
2021/09/27 02:58:04;;;;;;;;;;;14.10;56.50;;;;;;4343583;32;20034;-39
2021/09/27 03:01:05;;;;;;;;;;;14.00;56.50;;;;;;4343740;32;19975;-38
2021/09/27 03:03:35;;;;;;;;;;;13.90;56.60;;;;;;4340414;33;19998;-39
2021/09/27 03:06:18;;;;;;;;;;;13.90;56.90;;;;;;4343103;32;20381;-38
2021/09/27 03:09:30;;;;;;;;;;;13.80;56.90;;;;;;4341620;33;20009;-37
2021/09/27 03:12:10;;;;;;;;;;;13.80;57.00;;;;;;4284262;33;20461;-40
2021/09/27 03:14:55;;;;;;;;;;;13.80;57.00;;;;;;4285377;33;19975;-38
2021/09/27 03:17:42;;;;;;;;;;;13.70;56.80;;;;;;4285166;33;20018;-39
2021/09/27 03:20:11;;;;;;;;;;;13.70;56.90;;;;;;4285071;33;19996;-37
2021/09/27 03:23:02;;;;;;;;;;;13.80;56.90;;;;;;4273332;33;20041;-37
2021/09/27 03:25:40;;;;;;;;;;;13.70;56.70;;;;;;4274526;33;19972;-38
2021/09/27 03:28:24;;;;;;;;;;;13.70;56.70;;;;;;4273174;33;20054;-37
2021/09/27 03:31:12;;;;;;;;;;;13.80;56.70;;;;;;4272599;33;19992;-38
2021/09/27 03:34:01;;;;;;;;;;;13.80;56.70;;;;;;4284265;33;19995;-37
2021/09/27 03:37:04;;;;;;;;;;;13.80;56.80;;;;;;4285131;33;20020;-39
2021/09/27 03:40:02;;;;;;;;;;;13.80;56.70;;;;;;4284141;33;19972;-38
2021/09/27 03:42:47;;;;;;;;;;;13.80;56.70;;;;;;4284982;33;20469;-39
2021/09/27 03:45:18;;;;;;;;;;;13.80;56.80;;;;;;4273944;33;20058;-38
2021/09/27 03:48:11;;;;;;;;;;;13.80;56.80;;;;;;4319203;33;19967;-39
2021/09/27 03:50:45;;;;;;;;;;;13.80;56.50;;;;;;4331784;33;20526;-38
2021/09/27 03:53:17;;;;;;;;;;;13.90;56.50;;;;;;4332199;33;19958;-39
2021/09/27 03:56:10;;;;;;;;;;;13.90;56.50;;;;;;4320042;33;19986;-39
2021/09/27 03:58:47;;;;;;;;;;;13.90;56.20;;;;;;4331967;33;19962;-38
2021/09/27 04:01:56;;;;;;;;;;;13.90;56.10;;;;;;4332439;33;20459;-39
2021/09/27 04:04:44;;;;;;;;;;;14.00;56.10;;;;;;4345148;33;20548;-40
2021/09/27 04:07:44;;;;;;;;;;;14.00;56.00;;;;;;4345520;33;20050;-38
2021/09/27 04:10:18;;;;;;;;;;;14.00;56.00;;;;;;4344937;33;20379;-38
2021/09/27 04:13:32;;;;;;;;;;;14.00;56.40;;;;;;4345555;33;19966;-38
2021/09/27 04:16:17;;;;;;;;;;;14.10;56.30;;;;;;4317792;33;20025;-39
2021/09/27 04:18:55;;;;;;;;;;;14.20;55.90;;;;;;4345049;33;19993;-39
2021/09/27 04:21:44;;;;;;;;;;;14.30;55.90;;;;;;4345152;32;20406;-38
2021/09/27 04:24:28;;;;;;;;;;;14.30;55.60;;;;;;4331158;33;19963;-39
2021/09/27 04:27:13;;;;;;;;;;;14.40;55.80;;;;;;4344814;33;20001;-37
2021/09/27 04:29:47;;;;;;;;;;;14.50;55.40;;;;;;4345317;33;19966;-38
2021/09/27 04:32:22;;;;;;;;;;;14.50;55.10;;;;;;4345288;33;19971;-38
2021/09/27 04:35:08;;;;;;;;;;;14.60;55.10;;;;;;4331346;33;20560;-38
2021/09/27 04:37:34;;;;;;;;;;;14.70;55.60;;;;;;4344760;33;19973;-37
2021/09/27 04:40:01;;;;;;;;;;;14.70;54.90;;;;;;4330757;33;20480;-38
2021/09/27 04:42:55;;;;;;;;;;;14.90;54.90;;;;;;4331254;33;19979;-39
2021/09/27 04:45:44;;;;;;;;;;;15.00;54.90;;;;;;4344958;33;19973;-37
2021/09/27 04:48:35;;;;;;;;;;;15.10;54.20;;;;;;4349696;32;19980;-38
2021/09/27 04:51:06;;;;;;;;;;;15.20;54.10;;;;;;4347846;32;19998;-38
2021/09/27 04:53:50;;;;;;;;;;;15.40;53.80;;;;;;4359991;32;19955;-38
2021/09/27 04:56:37;;;;;;;;;;;15.40;54.00;;;;;;4359525;32;19963;-37
2021/09/27 04:59:27;;;;;;;;;;;15.50;53.30;;;;;;4335131;32;19984;-38
2021/09/27 05:01:56;;;;;;;;;;;15.60;53.20;;;;;;4347066;32;20091;-39
2021/09/27 05:04:34;;;;;;;;;;;15.80;53.30;;;;;;4359168;32;19990;-40
2021/09/27 05:07:17;;;;;;;;;;;15.80;52.20;;;;;;4312241;33;20061;-40
2021/09/27 05:10:15;;;;;;;;;;;15.90;52.50;;;;;;4312875;33;19963;-39
2021/09/27 05:13:25;;;;;;;;;;;15.90;52.10;;;;;;4254725;33;20004;-37
2021/09/27 05:15:57;;;;;;;;;;;15.90;52.40;;;;;;4254576;33;19957;-38
2021/09/27 05:18:47;;;;;;;;;;;16.10;52.70;;;;;;4254571;33;19977;-38
2021/09/27 05:21:40;;;;;;;;;;;16.20;52.10;;;;;;4254398;33;19972;-39
2021/09/27 05:24:16;;;;;;;;;;;16.20;51.50;;;;;;4254702;33;20409;-37
2021/09/27 05:27:05;;;;;;;;;;;16.30;51.50;;;;;;4254241;33;20011;-37
2021/09/27 05:29:57;;;;;;;;;;;16.30;51.40;;;;;;4254705;33;20056;-37
2021/09/27 05:32:44;;;;;;;;;;;16.40;51.40;;;;;;4254157;33;20009;-37
2021/09/27 05:35:13;;;;;;;;;;;16.50;50.90;;;;;;4254245;33;20000;-37
2021/09/27 05:37:57;;;;;;;;;;;16.60;51.00;;;;;;4254350;33;20128;-38
2021/09/27 05:40:52;;;;;;;;;;;16.60;50.50;;;;;;4254035;33;20395;-38
2021/09/27 05:43:28;;;;;;;;;;;16.60;50.80;;;;;;4254443;33;19969;-37
2021/09/27 05:46:00;;;;;;;;;;;16.60;50.90;;;;;;4283264;33;19988;-38
2021/09/27 05:48:30;;;;;;;;;;;16.60;51.10;;;;;;4294200;33;19967;-38
2021/09/27 05:51:12;;;;;;;;;;;16.60;50.80;;;;;;4330196;33;19986;-37
2021/09/27 05:53:51;;;;;;;;;;;16.70;51.00;;;;;;4343882;33;20434;-39
2021/09/27 05:56:20;;;;;;;;;;;16.70;50.20;;;;;;4329777;33;20514;-37
2021/09/27 05:59:12;;;;;;;;;;;16.80;50.60;;;;;;4344022;33;20045;-38
2021/09/27 06:01:56;;;;;;;;;;;16.80;50.30;;;;;;4343710;33;19975;-37
2021/09/27 06:04:28;;;;;;;;;;;16.90;50.30;;;;;;4343628;33;19993;-38
2021/09/27 06:07:06;;;;;;;;;;;17.00;50.10;;;;;;4343305;33;19974;-38
2021/09/27 06:09:49;;;;;;;;;;;17.10;49.80;;;;;;4329694;33;19971;-39
2021/09/27 06:12:24;;;;;;;;;;;17.10;49.10;;;;;;4330415;33;20442;-38
2021/09/27 06:14:52;;;;;;;;;;;17.20;49.60;;;;;;4344163;33;19963;-38
2021/09/27 06:17:21;;;;;;;;;;;17.20;49.50;;;;;;4343763;33;19994;-38
2021/09/27 06:20:09;;;;;;;;;;;17.30;49.20;;;;;;4343140;33;19971;-37
2021/09/27 06:22:54;;;;;;;;;;;17.40;49.40;;;;;;4343870;33;19998;-38
2021/09/27 06:25:43;;;;;;;;;;;17.50;49.00;;;;;;4343701;33;19970;-37
2021/09/27 06:28:35;;;;;;;;;;;17.60;48.90;;;;;;4329594;33;20415;-37
2021/09/27 06:31:38;;;;;;;;;;;17.80;48.60;;;;;;4300225;33;20069;-37
2021/09/27 06:34:09;;;;;;;;;;;18.00;48.00;;;;;;4311123;33;19971;-38
2021/09/27 06:36:36;;;;;;;;;;;18.30;48.00;;;;;;4284466;33;20021;-38
2021/09/27 06:39:06;;;;;;;;;;;18.40;47.20;;;;;;4284640;33;19972;-37
2021/09/27 06:41:33;;;;;;;;;;;18.70;46.70;;;;;;4296350;33;20413;-38
2021/09/27 06:43:59;;;;;;;;;;;18.90;46.30;;;;;;4285038;33;20101;-38
2021/09/27 06:46:25;;;;;;;;;;;19.10;46.00;;;;;;4300379;33;19975;-38
2021/09/27 06:48:52;;;;;;;;;;;19.30;45.50;;;;;;4301253;33;20082;-37
2021/09/27 06:51:18;;;;;;;;;;;19.50;44.80;;;;;;4301216;33;20070;-37
2021/09/27 06:53:44;;;;;;;;;;;19.60;44.70;;;;;;4301835;33;20500;-37
2021/09/27 06:56:11;;;;;;;;;;;19.80;44.30;;;;;;4289788;33;19982;-37
2021/09/27 06:58:37;;;;;;;;;;;20.00;44.00;;;;;;4301946;33;19972;-38
2021/09/27 07:01:03;;;;;;;;;;;20.10;43.50;;;;;;4301660;33;20342;-38
2021/09/27 07:03:30;;;;;;;;;;;20.20;43.50;;;;;;4301847;33;19979;-37
2021/09/27 07:05:56;;;;;;;;;;;20.40;43.50;;;;;;4301863;33;19975;-37
2021/09/27 07:08:23;;;;;;;;;;;20.60;42.90;;;;;;4307696;33;19971;-37
2021/09/27 07:10:50;;;;;;;;;;;20.60;42.20;;;;;;4316127;33;20003;-37
2021/09/27 07:13:17;;;;;;;;;;;20.70;42.00;;;;;;4321699;33;19975;-36
2021/09/27 07:15:43;;;;;;;;;;;20.80;41.70;;;;;;4333434;33;20419;-37
2021/09/27 07:18:09;;;;;;;;;;;20.80;41.70;;;;;;4333173;33;20486;-36
2021/09/27 07:20:35;;;;;;;;;;;20.80;41.90;;;;;;4347165;33;20400;-37
2021/09/27 07:23:02;;;;;;;;;;;20.80;41.90;;;;;;4334102;33;20461;-36
2021/09/27 07:25:29;;;;;;;;;;;20.80;41.70;;;;;;4347664;33;20458;-36
2021/09/27 07:27:55;;;;;;;;;;;20.70;42.00;;;;;;4348141;33;20387;-36
2021/09/27 07:30:21;;;;;;;;;;;20.60;42.00;;;;;;4347988;33;20067;-38
2021/09/27 07:32:48;;;;;;;;;;;20.60;42.10;;;;;;4347920;33;20367;-37
2021/09/27 07:35:16;;;;;;;;;;;20.60;42.10;;;;;;4347832;33;19958;-38
2021/09/27 07:37:42;;;;;;;;;;;20.50;42.10;;;;;;4347484;33;20531;-36
2021/09/27 07:40:11;;;;;;;;;;;20.50;42.40;;;;;;4348192;33;19995;-36
2021/09/27 07:42:41;;;;;;;;;;;20.50;42.30;;;;;;4334684;33;19999;-36
2021/09/27 07:45:07;;;;;;;;;;;20.60;42.60;;;;;;4348022;33;19967;-37
2021/09/27 07:47:34;;;;;;;;;;;20.60;41.90;;;;;;4334221;33;19967;-36
2021/09/27 07:50:00;;;;;;;;;;;20.50;42.40;;;;;;4347823;32;20352;-37
2021/09/27 07:52:26;;;;;;;;;;;20.50;42.50;;;;;;4346285;33;20407;-37
2021/09/27 07:54:52;;;;;;;;;;;20.30;42.30;;;;;;4347540;32;20371;-37
2021/09/27 07:57:18;;;;;;;;;;;20.20;42.60;;;;;;4346753;32;19990;-37
2021/09/27 07:59:46;;;;;;;;;;;20.20;42.40;;;;;;4342702;33;20482;-37
2021/09/27 08:02:18;;;;;;;;;;;20.10;42.50;;;;;;4343052;33;20066;-37
2021/09/27 08:04:44;;;;;;;;;;;20.00;42.80;;;;;;4331148;33;19963;-37
2021/09/27 08:07:11;;;;;;;;;;;20.10;42.50;;;;;;4342468;33;19993;-37
2021/09/27 08:09:37;;;;;;;;;;;20.00;42.10;;;;;;4342626;33;20080;-38
2021/09/27 08:12:04;;;;;;;;;;;20.00;42.10;;;;;;4342599;33;19989;-37
2021/09/27 08:14:30;;;;;;;;;;;19.90;42.50;;;;;;4342426;33;19982;-39
2021/09/27 08:16:57;;;;;;;;;;;19.90;42.70;;;;;;4342417;33;19974;-38
2021/09/27 08:19:25;;;;;;;;;;;20.00;42.80;;;;;;4330373;33;20107;-38
2021/09/27 08:21:52;;;;;;;;;;;20.10;42.70;;;;;;4343323;33;19962;-38
2021/09/27 08:24:18;;;;;;;;;;;20.20;42.70;;;;;;4342503;33;20141;-38
2021/09/27 08:26:44;;;;;;;;;;;20.30;42.40;;;;;;4342942;33;20517;-39
2021/09/27 08:29:11;;;;;;;;;;;20.40;41.60;;;;;;4342828;33;20000;-38
2021/09/27 08:31:37;;;;;;;;;;;20.50;41.80;;;;;;4344446;33;19963;-37
2021/09/27 08:34:03;;;;;;;;;;;20.50;41.10;;;;;;4344698;32;20013;-36
2021/09/27 08:36:30;;;;;;;;;;;20.50;41.10;;;;;;4344914;32;19982;-37
2021/09/27 08:38:56;;;;;;;;;;;20.40;41.20;;;;;;4343539;33;19982;-37
2021/09/27 08:41:46;;;;;;;;;;;20.40;41.30;;;;;;4343463;33;19975;-37
2021/09/27 08:44:44;;;;;;;;;;;20.50;41.40;;;;;;4343164;33;20080;-37
2021/09/27 08:47:47;;;;;;;;;;;20.60;41.60;;;;;;4344682;32;20037;-37
2021/09/27 08:50:42;;;;;;;;;;;20.80;41.80;;;;;;4344429;33;20940;-37
2021/09/27 08:53:34;;;;;;;;;;;20.80;41.00;;;;;;4342824;33;19962;-37
2021/09/27 08:56:07;;;;;;;;;;;20.80;41.00;;;;;;4334099;33;20407;-38
2021/09/27 08:59:08;;;;;;;;;;;20.70;41.00;;;;;;4330756;33;19970;-38
2021/09/27 09:02:12;;;;;;;;;;;20.70;40.60;;;;;;4327744;33;19967;-37
2021/09/27 09:05:11;;;;;;;;;;;20.70;41.10;;;;;;4283246;33;19984;-37
2021/09/27 09:08:07;;;;;;;;;;;20.80;41.00;;;;;;4283995;33;19982;-37
2021/09/27 09:10:46;;;;;;;;;;;20.90;41.50;;;;;;4337531;33;20412;-38
2021/09/27 09:13:21;;;;;;;;;;;21.00;40.80;;;;;;4344784;32;20049;-38
2021/09/27 09:15:54;;;;;;;;;;;21.00;41.60;;;;;;4330981;33;19982;-38
2021/09/27 09:18:27;;;;;;;;;;;20.90;41.90;;;;;;4330972;33;20055;-38
2021/09/27 09:21:03;;;;;;;;;;;20.70;42.30;;;;;;4330596;33;20434;-37
2021/09/27 09:23:57;;;;;;;;;;;20.60;42.90;;;;;;4330546;33;19970;-39
2021/09/27 09:26:32;;;;;;;;;;;20.70;43.10;;;;;;4341908;33;20437;-38
2021/09/27 09:28:58;;;;;;;;;;;20.70;42.80;;;;;;4318345;33;19963;-38
2021/09/27 09:31:36;;;;;;;;;;;20.70;42.90;;;;;;4318327;33;19967;-37
2021/09/27 09:34:29;;;;;;;;;;;20.70;43.10;;;;;;4344250;33;19959;-37
2021/09/27 09:37:00;;;;;;;;;;;20.80;43.10;;;;;;4338360;33;19985;-37
2021/09/27 09:39:31;;;;;;;;;;;20.70;42.50;;;;;;4344092;33;20055;-38
2021/09/27 09:42:27;;;;;;;;;;;20.60;42.60;;;;;;4344037;33;19973;-39
2021/09/27 09:44:54;;;;;;;;;;;20.60;43.20;;;;;;4340794;33;20030;-38
2021/09/27 09:47:28;;;;;;;;;;;20.20;43.30;;;;;;4330326;33;19978;-38
2021/09/27 09:49:57;;;;;;;;;;;20.10;44.10;;;;;;4343546;33;20022;-37
2021/09/27 09:52:25;;;;;;;;;;;20.00;44.30;;;;;;4344317;33;20019;-38
2021/09/27 09:54:53;;;;;;;;;;;20.00;44.40;;;;;;4330227;33;19993;-36
2021/09/27 09:57:36;;;;;;;;;;;19.90;44.60;;;;;;4343781;33;20002;-37
2021/09/27 10:00:05;;;;;;;;;;;19.80;44.70;;;;;;4329741;33;20049;-37
2021/09/27 10:02:32;;;;;;;;;;;19.80;44.80;;;;;;4343895;33;19971;-37
2021/09/27 10:05:09;;;;;;;;;;;19.80;45.00;;;;;;4330237;33;19970;-37
2021/09/27 10:07:48;;;;;;;;;;;19.80;45.10;;;;;;4330871;33;19989;-38
2021/09/27 10:10:32;;;;;;;;;;;19.70;45.20;;;;;;4330672;33;19970;-37
2021/09/27 10:12:59;;;;;;;;;;;19.80;45.10;;;;;;4344137;33;19983;-37
2021/09/27 10:15:38;;;;;;;;;;;19.90;45.00;;;;;;4343614;32;20043;-37
2021/09/27 10:18:16;;;;;;;;;;;19.80;45.10;;;;;;4343950;33;19962;-36
2021/09/27 10:20:52;;;;;;;;;;;19.90;45.20;;;;;;4343185;32;19975;-37
2021/09/27 10:23:27;;;;;;;;;;;20.00;44.90;;;;;;4343591;33;20450;-37
2021/09/27 10:25:53;;;;;;;;;;;20.00;44.90;;;;;;4343676;33;19959;-37
2021/09/27 10:28:21;;;;;;;;;;;20.00;44.90;;;;;;4343626;33;20565;-38
2021/09/27 10:30:54;;;;;;;;;;;20.10;45.20;;;;;;4329847;33;19982;-37
2021/09/27 10:33:32;;;;;;;;;;;20.20;44.60;;;;;;4329922;33;19998;-37
2021/09/27 10:35:59;;;;;;;;;;;20.30;45.00;;;;;;4343512;33;20400;-36
2021/09/27 10:38:29;;;;;;;;;;;20.20;44.80;;;;;;4330134;33;19986;-37
2021/09/27 10:40:55;;;;;;;;;;;20.20;45.30;;;;;;4343943;33;19979;-37
2021/09/27 10:43:24;;;;;;;;;;;20.10;45.30;;;;;;4329907;33;20054;-36
2021/09/27 10:45:59;;;;;;;;;;;20.10;45.50;;;;;;4343257;33;20024;-37
2021/09/27 10:48:25;;;;;;;;;;;19.90;45.20;;;;;;4343377;33;19985;-36
2021/09/27 10:51:03;;;;;;;;;;;19.80;45.40;;;;;;4343064;33;19975;-36
2021/09/27 10:53:32;;;;;;;;;;;19.80;45.40;;;;;;4343597;32;19978;-36
2021/09/27 10:56:35;;;;;;;;;;;19.60;45.80;;;;;;4343516;32;19982;-37
2021/09/27 10:59:13;;;;;;;;;;;19.60;46.20;;;;;;4343638;32;20046;-36
2021/09/27 11:02:13;;;;;;;;;;;19.50;46.80;;;;;;4343364;32;19975;-37
2021/09/27 11:04:46;;;;;;;;;;;19.50;46.90;;;;;;4343296;32;19966;-36
2021/09/27 11:07:33;;;;;;;;;;;19.40;47.10;;;;;;4342922;32;19990;-37
2021/09/27 11:09:59;;;;;;;;;;;19.50;46.60;;;;;;4343461;33;20450;-36
2021/09/27 11:12:25;;;;;;;;;;;19.50;46.60;;;;;;4343118;32;19966;-35
2021/09/27 11:14:57;;;;;;;;;;;19.40;46.60;;;;;;4343102;32;19952;-36
2021/09/27 11:17:31;;;;;;;;;;;19.50;46.80;;;;;;4343361;32;19971;-36
2021/09/27 11:20:03;;;;;;;;;;;19.50;46.20;;;;;;4347677;32;20399;-36
2021/09/27 11:22:41;;;;;;;;;;;19.60;46.40;;;;;;4358290;32;19970;-37
2021/09/27 11:25:33;;;;;;;;;;;19.70;46.20;;;;;;4344449;32;19973;-36
2021/09/27 11:28:27;;;;;;;;;;;19.80;45.70;;;;;;4344860;32;19979;-37
2021/09/27 11:31:21;;;;;;;;;;;19.70;45.50;;;;;;4357657;32;20009;-37
2021/09/27 11:34:17;;;;;;;;;;;19.70;45.70;;;;;;4361015;32;19985;-36
2021/09/27 11:36:46;;;;;;;;;;;19.40;45.90;;;;;;4338652;32;20067;-37
2021/09/27 11:39:35;;;;;;;;;;;19.20;46.50;;;;;;4360913;32;19970;-35
2021/09/27 11:42:20;;;;;;;;;;;19.10;47.00;;;;;;4335301;32;19958;-36
2021/09/27 11:45:28;;;;;;;;;;;19.10;47.30;;;;;;4360432;32;20044;-37
2021/09/27 11:47:57;;;;;;;;;;;18.90;47.10;;;;;;4327482;33;20006;-37
2021/09/27 11:53:37;;;;;;;;;;;18.80;47.10;;;;;;4313434;33;20023;-37
2021/09/27 11:56:18;;;;;;;;;;;18.80;47.40;;;;;;4314008;33;20404;-35
2021/09/27 11:59:07;;;;;;;;;;;18.80;47.40;;;;;;4313588;33;20061;-36
2021/09/27 12:01:54;;;;;;;;;;;18.60;47.70;;;;;;4314029;33;20072;-36
2021/09/27 12:04:26;;;;;;;;;;;18.50;48.10;;;;;;4303123;33;19998;-36
2021/09/27 12:06:57;;;;;;;;;;;18.40;48.30;;;;;;4301489;33;19967;-36
2021/09/27 12:09:31;;;;;;;;;;;18.40;48.60;;;;;;4301478;33;19979;-36
2021/09/27 12:11:58;;;;;;;;;;;18.20;48.90;;;;;;4313599;33;19968;-37
2021/09/27 12:14:28;;;;;;;;;;;18.10;49.00;;;;;;4313382;33;19967;-39
2021/09/27 12:16:59;;;;;;;;;;;18.00;49.50;;;;;;4289502;33;20029;-36
2021/09/27 12:19:27;;;;;;;;;;;18.00;49.70;;;;;;4312794;33;20505;-35
2021/09/27 12:21:56;;;;;;;;;;;18.00;49.70;;;;;;4301579;33;19975;-36
2021/09/27 12:24:24;;;;;;;;;;;18.00;49.60;;;;;;4313748;33;19971;-36
2021/09/27 12:27:12;;;;;;;;;;;18.00;49.40;;;;;;4313198;33;19975;-37
2021/09/27 12:29:57;;;;;;;;;;;18.00;49.30;;;;;;4326561;33;20006;-35
2021/09/27 12:32:40;;;;;;;;;;;17.80;49.40;;;;;;4344999;33;19994;-37
2021/09/27 12:35:14;;;;;;;;;;;17.70;49.70;;;;;;4344967;33;20364;-36
2021/09/27 12:37:41;;;;;;;;;;;17.70;49.80;;;;;;4344563;33;19971;-37
2021/09/27 12:40:11;;;;;;;;;;;17.60;49.90;;;;;;4345277;33;19958;-38
2021/09/27 12:42:46;;;;;;;;;;;17.60;50.10;;;;;;4344692;32;19959;-38
2021/09/27 12:45:20;;;;;;;;;;;17.50;49.80;;;;;;4330808;33;20043;-38
2021/09/27 12:47:47;;;;;;;;;;;17.30;50.30;;;;;;4314791;33;19979;-37
2021/09/27 12:50:19;;;;;;;;;;;17.20;50.70;;;;;;4302738;33;19973;-36
2021/09/27 12:52:53;;;;;;;;;;;17.10;51.00;;;;;;4315339;33;20035;-36
2021/09/27 12:55:34;;;;;;;;;;;17.00;51.30;;;;;;4314933;33;20504;-37
2021/09/27 12:58:01;;;;;;;;;;;16.90;51.60;;;;;;4303752;33;19991;-37
2021/09/27 13:00:41;;;;;;;;;;;16.90;51.70;;;;;;4303513;33;20041;-36
2021/09/27 13:03:09;;;;;;;;;;;16.80;51.90;;;;;;4315376;33;20027;-38
2021/09/27 13:05:52;;;;;;;;;;;16.70;51.90;;;;;;4327655;33;20044;-37
2021/09/27 13:08:23;;;;;;;;;;;16.50;52.40;;;;;;4326925;33;20042;-37
2021/09/27 13:10:54;;;;;;;;;;;16.50;52.60;;;;;;4327453;33;20086;-37
2021/09/27 13:13:30;;;;;;;;;;;16.50;52.80;;;;;;4303730;33;19971;-37
2021/09/27 13:16:03;;;;;;;;;;;16.50;52.80;;;;;;4315366;33;19983;-38
2021/09/27 13:18:33;;;;;;;;;;;16.40;52.60;;;;;;4326405;32;20005;-36
2021/09/27 13:21:11;;;;;;;;;;;16.40;52.80;;;;;;4359168;32;20456;-38
2021/09/27 13:23:40;;;;;;;;;;;16.40;52.60;;;;;;4359225;32;20055;-37
2021/09/27 13:26:30;;;;;;;;;;;16.30;52.50;;;;;;4359546;32;20051;-37
2021/09/27 13:28:59;;;;;;;;;;;16.30;52.70;;;;;;4358453;32;20051;-38
2021/09/27 13:31:29;;;;;;;;;;;16.30;52.60;;;;;;4358747;32;20410;-38
2021/09/27 13:33:57;;;;;;;;;;;16.30;52.60;;;;;;4332929;32;19975;-38
2021/09/27 13:36:26;;;;;;;;;;;16.30;52.60;;;;;;4345508;32;20354;-38
2021/09/27 13:39:02;;;;;;;;;;;16.20;52.60;;;;;;4358936;32;20037;-38
2021/09/27 13:41:46;;;;;;;;;;;16.10;52.60;;;;;;4345744;32;19966;-38
2021/09/27 13:44:31;;;;;;;;;;;16.00;53.00;;;;;;4359065;32;19986;-39
2021/09/27 13:46:57;;;;;;;;;;;16.00;53.10;;;;;;4359388;32;20452;-39
2021/09/27 13:49:23;;;;;;;;;;;16.00;53.20;;;;;;4332632;33;19973;-38
2021/09/27 13:51:49;;;;;;;;;;;16.00;53.10;;;;;;4329980;33;20469;-37
2021/09/27 13:54:16;;;;;;;;;;;16.00;53.20;;;;;;4329774;33;19990;-37
2021/09/27 13:56:42;;;;;;;;;;;15.90;53.00;;;;;;4343507;33;20062;-37
2021/09/27 13:59:08;;;;;;;;;;;15.90;53.20;;;;;;4330072;33;19975;-37
2021/09/27 14:01:35;;;;;;;;;;;15.80;53.10;;;;;;4343872;33;19991;-37
2021/09/27 14:04:02;;;;;;;;;;;15.70;53.50;;;;;;4329897;33;20434;-37
2021/09/27 14:06:28;;;;;;;;;;;15.60;53.60;;;;;;4329365;33;20401;-37
2021/09/27 14:08:56;;;;;;;;;;;15.50;53.80;;;;;;4343431;33;19982;-37
2021/09/27 14:11:23;;;;;;;;;;;15.50;54.10;;;;;;4330297;33;19974;-38
2021/09/27 14:13:51;;;;;;;;;;;15.50;54.00;;;;;;4329904;33;19962;-38
2021/09/27 14:16:17;;;;;;;;;;;15.50;54.10;;;;;;4329728;33;19994;-37
2021/09/27 14:18:46;;;;;;;;;;;15.40;54.00;;;;;;4329626;33;20399;-38
2021/09/27 14:21:15;;;;;;;;;;;15.50;53.90;;;;;;4343117;33;20079;-38
2021/09/27 14:23:43;;;;;;;;;;;15.50;53.60;;;;;;4343908;33;20032;-38
2021/09/27 14:26:09;;;;;;;;;;;15.40;53.50;;;;;;4343202;33;19981;-37
2021/09/27 14:28:36;;;;;;;;;;;15.40;53.60;;;;;;4342938;33;19991;-38
2021/09/27 14:31:05;;;;;;;;;;;15.40;53.50;;;;;;4343091;33;19971;-39
2021/09/27 14:33:31;;;;;;;;;;;15.40;53.40;;;;;;4343355;33;19967;-38
2021/09/27 14:35:58;;;;;;;;;;;15.30;53.20;;;;;;4343330;33;19963;-39
2021/09/27 14:38:24;;;;;;;;;;;15.40;53.20;;;;;;4329433;33;19983;-38
2021/09/27 14:40:52;;;;;;;;;;;15.30;53.10;;;;;;4329120;33;20380;-38
2021/09/27 14:43:20;;;;;;;;;;;15.30;53.10;;;;;;4329488;33;20415;-39
2021/09/27 14:45:46;;;;;;;;;;;15.30;53.00;;;;;;4343459;33;19959;-39
2021/09/27 14:48:12;;;;;;;;;;;15.20;52.90;;;;;;4348371;32;19990;-39
2021/09/27 14:50:42;;;;;;;;;;;15.20;52.90;;;;;;4358292;32;19982;-37
2021/09/27 14:53:09;;;;;;;;;;;15.20;52.50;;;;;;4344591;32;19977;-38
2021/09/27 14:55:38;;;;;;;;;;;15.20;52.20;;;;;;4358032;32;19998;-38
2021/09/27 14:58:05;;;;;;;;;;;15.20;52.20;;;;;;4344603;32;20037;-38
2021/09/27 15:00:32;;;;;;;;;;;15.20;51.90;;;;;;4358137;32;20463;-38
2021/09/27 15:02:58;;;;;;;;;;;15.30;51.60;;;;;;4331670;32;19973;-40
2021/09/27 15:05:24;;;;;;;;;;;15.30;51.10;;;;;;4357916;32;19973;-39
2021/09/27 15:07:52;;;;;;;;;;;15.30;50.90;;;;;;4359734;32;20455;-38